Time;durP1;ratioP1;P1;durP2;ratioP2;P2;SDS_P1;SDS_P2;PMS_P1;PMS_P2;Temp;Humidity;BMP_temperature;BMP_pressure;BME280_temperature;BME280_humidity;BME280_pressure;Samples;Min_cycle;Max_cycle;Signal;HPM_P1;HPM_P2
2021/04/04 00:02:12;;;;;;;4.60;3.03;;;4.10;76.00;;;;;;5093765;28;20951;-79
2021/04/04 00:04:38;;;;;;;4.27;2.30;;;4.10;75.70;;;;;;5093758;28;20436;-79
2021/04/04 00:07:05;;;;;;;4.27;2.50;;;4.10;76.20;;;;;;5093716;28;20586;-79
2021/04/04 00:09:31;;;;;;;3.37;2.73;;;4.10;76.40;;;;;;5093540;28;20501;-80
2021/04/04 00:11:57;;;;;;;4.83;3.40;;;4.10;76.50;;;;;;5093468;28;20459;-80
2021/04/04 00:14:24;;;;;;;3.20;3.00;;;4.10;76.50;;;;;;5093817;28;20455;-79
2021/04/04 00:16:50;;;;;;;12.27;4.33;;;4.10;76.30;;;;;;5093471;28;20963;-79
2021/04/04 00:19:16;;;;;;;8.43;2.60;;;4.10;76.60;;;;;;5093663;28;20558;-79
2021/04/04 00:21:42;;;;;;;6.10;3.00;;;4.00;76.60;;;;;;5093708;28;20456;-79
2021/04/04 00:24:10;;;;;;;6.20;3.20;;;4.00;76.20;;;;;;5093687;28;20845;-79
2021/04/04 00:26:36;;;;;;;7.27;3.43;;;3.90;76.30;;;;;;5093367;28;20436;-79
2021/04/04 00:29:05;;;;;;;8.20;2.93;;;3.90;75.90;;;;;;5093265;28;20463;-79
2021/04/04 00:31:31;;;;;;;6.10;2.80;;;3.90;76.00;;;;;;5093612;28;20450;-79
2021/04/04 00:33:57;;;;;;;3.33;2.87;;;3.90;75.80;;;;;;5093148;28;21014;-79
2021/04/04 00:36:24;;;;;;;2.97;2.70;;;3.90;76.10;;;;;;5093493;28;20448;-79
2021/04/04 00:38:51;;;;;;;2.47;2.27;;;3.90;76.50;;;;;;5093369;28;20476;-79
2021/04/04 00:41:18;;;;;;;6.30;2.67;;;3.90;76.60;;;;;;5093389;28;20838;-79
2021/04/04 00:43:44;;;;;;;3.80;2.33;;;3.90;76.80;;;;;;5093420;28;20443;-79
2021/04/04 00:46:10;;;;;;;6.37;3.13;;;3.80;76.20;;;;;;5093488;28;20443;-79
2021/04/04 00:48:36;;;;;;;5.47;2.90;;;3.80;76.90;;;;;;5092957;28;20475;-79
2021/04/04 00:51:03;;;;;;;6.40;3.00;;;3.70;76.70;;;;;;5093378;28;20444;-79
2021/04/04 00:53:29;;;;;;;4.10;3.10;;;3.70;77.20;;;;;;5093351;28;20483;-79
2021/04/04 00:55:56;;;;;;;4.03;2.57;;;3.60;78.20;;;;;;5093376;28;20468;-79
2021/04/04 00:58:24;;;;;;;4.80;2.47;;;3.70;77.70;;;;;;5093004;28;20923;-79
2021/04/04 01:00:50;;;;;;;2.90;2.37;;;3.60;78.00;;;;;;5093043;28;20813;-79
2021/04/04 01:03:16;;;;;;;5.50;2.97;;;3.50;78.40;;;;;;5093309;28;20443;-79
2021/04/04 01:05:45;;;;;;;2.60;2.40;;;3.50;78.20;;;;;;5093218;28;20445;-79
2021/04/04 01:08:12;;;;;;;6.73;2.43;;;3.50;79.30;;;;;;5093225;28;20534;-79
2021/04/04 01:10:42;;;;;;;3.97;2.90;;;3.40;77.90;;;;;;5092848;28;21052;-79
2021/04/04 01:13:17;;;;;;;5.13;2.57;;;3.40;78.90;;;;;;5093174;28;20507;-79
2021/04/04 01:15:49;;;;;;;4.80;2.33;;;3.40;78.60;;;;;;5092886;28;20412;-79
2021/04/04 01:18:20;;;;;;;4.23;2.80;;;3.30;78.10;;;;;;5093117;28;20448;-79
2021/04/04 01:20:50;;;;;;;4.23;2.40;;;3.30;78.50;;;;;;5093212;28;20477;-79
2021/04/04 01:23:34;;;;;;;3.43;2.33;;;3.20;79.40;;;;;;5093118;28;20477;-79
2021/04/04 01:26:09;;;;;;;5.60;2.70;;;3.20;79.50;;;;;;5093132;28;20436;-79
2021/04/04 01:28:40;;;;;;;3.40;2.83;;;3.20;80.10;;;;;;5093002;28;20435;-80
2021/04/04 01:31:07;;;;;;;3.17;2.60;;;3.20;80.40;;;;;;5092726;28;20433;-79
2021/04/04 01:33:35;;;;;;;9.67;2.67;;;3.20;79.70;;;;;;5092714;28;20567;-79
2021/04/04 01:36:05;;;;;;;4.17;3.10;;;3.20;81.10;;;;;;5092735;28;20936;-79
2021/04/04 01:38:37;;;;;;;3.67;2.40;;;3.20;81.40;;;;;;5092550;28;20455;-79
2021/04/04 01:41:10;;;;;;;5.57;2.57;;;3.20;81.50;;;;;;5092955;28;20417;-79
2021/04/04 01:43:41;;;;;;;4.20;2.90;;;3.20;81.20;;;;;;5092971;28;20789;-79
2021/04/04 01:46:07;;;;;;;4.60;2.70;;;3.10;81.80;;;;;;5096756;28;20509;-79
2021/04/04 01:48:34;;;;;;;7.00;3.50;;;3.10;82.10;;;;;;5096097;28;20488;-79
2021/04/04 01:51:01;;;;;;;5.37;3.10;;;3.10;83.10;;;;;;5096287;28;20429;-79
2021/04/04 01:53:29;;;;;;;3.93;2.93;;;3.00;82.80;;;;;;5096431;28;20475;-79
2021/04/04 01:55:55;;;;;;;4.17;3.00;;;3.00;83.40;;;;;;5096215;28;20794;-79
2021/04/04 01:58:23;;;;;;;3.70;2.80;;;3.00;83.90;;;;;;5096018;28;20447;-79
2021/04/04 02:00:50;;;;;;;4.57;2.70;;;3.00;84.10;;;;;;5096374;28;20451;-80
2021/04/04 02:03:17;;;;;;;4.17;2.50;;;3.00;84.90;;;;;;5095920;28;20496;-80
2021/04/04 02:05:43;;;;;;;4.27;3.03;;;2.90;84.80;;;;;;5096220;28;20509;-80
2021/04/04 02:08:12;;;;;;;3.40;2.30;;;2.90;84.60;;;;;;5096189;28;20448;-79
2021/04/04 02:10:38;;;;;;;6.57;3.57;;;2.90;85.30;;;;;;5095825;28;20448;-79
2021/04/04 02:13:05;;;;;;;5.40;3.43;;;2.90;86.20;;;;;;5095732;28;20499;-79
2021/04/04 02:15:33;;;;;;;2.97;2.60;;;2.90;86.30;;;;;;5096063;28;20506;-79
2021/04/04 02:18:02;;;;;;;4.70;2.87;;;3.00;85.80;;;;;;5096031;28;20444;-79
2021/04/04 02:20:30;;;;;;;5.57;3.50;;;3.10;85.50;;;;;;5095659;28;20459;-79
2021/04/04 02:22:59;;;;;;;4.20;3.27;;;3.00;85.90;;;;;;5095937;28;20440;-79
2021/04/04 02:25:27;;;;;;;3.00;2.53;;;3.00;85.40;;;;;;5095592;28;20448;-79
2021/04/04 02:27:53;;;;;;;2.87;2.50;;;2.90;85.60;;;;;;5095554;28;20436;-79
2021/04/04 02:30:21;;;;;;;3.67;3.17;;;2.80;86.60;;;;;;5095746;28;20442;-79
2021/04/04 02:32:54;;;;;;;4.33;3.27;;;2.80;87.40;;;;;;5095776;28;20499;-79
2021/04/04 02:35:27;;;;;;;3.20;3.00;;;2.80;88.10;;;;;;5095473;28;20477;-79
2021/04/04 02:37:56;;;;;;;4.60;2.97;;;2.70;88.70;;;;;;5095855;28;20886;-79
2021/04/04 02:40:23;;;;;;;5.00;2.90;;;2.60;89.50;;;;;;5095605;28;20460;-79
2021/04/04 02:42:51;;;;;;;3.33;3.03;;;2.70;89.30;;;;;;5095737;28;20432;-79
2021/04/04 02:45:18;;;;;;;4.23;2.70;;;2.70;90.00;;;;;;5095281;28;20452;-79
2021/04/04 02:47:52;;;;;;;5.90;2.87;;;2.70;89.30;;;;;;5095225;28;20479;-79
2021/04/04 02:50:20;;;;;;;5.00;2.60;;;2.70;89.70;;;;;;5095427;28;20471;-79
2021/04/04 02:52:50;;;;;;;4.03;2.63;;;2.70;89.20;;;;;;5094991;28;21002;-79
2021/04/04 02:55:17;;;;;;;5.73;3.20;;;2.80;89.80;;;;;;5095016;28;20436;-80
2021/04/04 02:57:46;;;;;;;3.57;2.97;;;2.70;89.00;;;;;;5094862;28;20448;-79
2021/04/04 03:00:16;;;;;;;3.93;3.10;;;2.70;89.40;;;;;;5095029;28;20995;-79
2021/04/04 03:02:43;;;;;;;3.87;3.37;;;2.70;89.80;;;;;;5095318;28;20501;-79
2021/04/04 03:05:10;;;;;;;3.57;3.27;;;2.70;90.00;;;;;;5094973;28;20440;-79
2021/04/04 03:07:41;;;;;;;4.57;2.93;;;2.60;89.00;;;;;;5094730;28;20459;-80
2021/04/04 03:10:10;;;;;;;3.83;2.70;;;2.60;89.40;;;;;;5094631;28;20471;-79
2021/04/04 03:12:38;;;;;;;5.93;3.37;;;2.50;89.50;;;;;;5094704;28;20525;-79
2021/04/04 03:15:07;;;;;;;6.50;3.43;;;2.50;89.70;;;;;;5094909;28;20426;-80
2021/04/04 03:17:36;;;;;;;8.67;3.30;;;2.40;90.00;;;;;;5095551;28;20818;-80
2021/04/04 03:20:06;;;;;;;3.43;3.13;;;2.30;90.30;;;;;;5094649;28;20464;-79
2021/04/04 03:22:34;;;;;;;3.33;2.90;;;2.40;90.70;;;;;;5094511;28;20840;-79
2021/04/04 03:25:01;;;;;;;3.80;2.87;;;2.30;91.40;;;;;;5094407;28;20451;-79
2021/04/04 03:27:29;;;;;;;5.50;2.80;;;2.30;91.10;;;;;;5094717;28;20440;-79
2021/04/04 03:29:56;;;;;;;2.97;2.73;;;2.30;91.60;;;;;;5094537;28;20472;-79
2021/04/04 03:32:23;;;;;;;5.97;2.60;;;2.20;91.80;;;;;;5094177;28;20967;-80
2021/04/04 03:34:49;;;;;;;2.90;2.17;;;2.10;92.10;;;;;;5094494;28;20444;-79
2021/04/04 03:37:16;;;;;;;4.17;3.20;;;2.10;92.50;;;;;;5094571;28;20452;-79
2021/04/04 03:39:43;;;;;;;5.97;3.60;;;2.00;92.90;;;;;;5094103;28;20994;-80
2021/04/04 03:42:10;;;;;;;4.10;3.00;;;1.90;93.70;;;;;;5094508;28;20509;-80
2021/04/04 03:44:40;;;;;;;4.57;3.27;;;1.90;94.30;;;;;;5094531;28;20444;-79
2021/04/04 03:47:07;;;;;;;4.70;3.43;;;1.90;94.80;;;;;;5094377;28;20442;-79
2021/04/04 03:49:35;;;;;;;7.07;3.40;;;1.90;95.50;;;;;;5094600;28;20438;-80
2021/04/04 03:52:02;;;;;;;3.50;2.80;;;1.90;95.80;;;;;;5094837;28;20448;-79
2021/04/04 03:54:32;;;;;;;3.87;2.97;;;1.90;96.20;;;;;;5094311;28;20480;-79
2021/04/04 03:56:59;;;;;;;5.23;3.47;;;1.90;96.60;;;;;;5094071;28;20780;-79
2021/04/04 03:59:28;;;;;;;5.63;3.13;;;2.00;97.30;;;;;;5093970;28;20448;-79
2021/04/04 04:01:56;;;;;;;4.80;3.40;;;1.90;97.90;;;;;;5094045;28;20451;-80
2021/04/04 04:04:23;;;;;;;5.50;4.53;;;2.00;98.00;;;;;;5093762;28;20432;-80
2021/04/04 04:06:50;;;;;;;7.13;3.50;;;2.00;98.30;;;;;;5093731;28;20440;-80
2021/04/04 04:09:18;;;;;;;5.50;3.70;;;2.00;97.90;;;;;;5093819;28;20445;-80
2021/04/04 04:11:46;;;;;;;5.03;3.90;;;2.00;98.30;;;;;;5093834;28;20418;-80
2021/04/04 04:14:15;;;;;;;7.67;3.20;;;2.00;98.20;;;;;;5093784;28;20560;-79
2021/04/04 04:16:42;;;;;;;4.83;3.60;;;2.00;98.70;;;;;;5093795;28;20459;-79
2021/04/04 04:19:11;;;;;;;7.40;3.53;;;2.00;99.00;;;;;;5093483;28;20967;-79
2021/04/04 04:21:39;;;;;;;6.60;3.50;;;2.10;99.50;;;;;;5093752;28;20415;-79
2021/04/04 04:24:09;;;;;;;6.60;2.73;;;2.10;99.40;;;;;;5093450;28;20535;-79
2021/04/04 04:26:38;;;;;;;5.60;3.13;;;2.10;99.90;;;;;;5093428;28;20429;-79
2021/04/04 04:29:05;;;;;;;4.90;3.00;;;2.20;99.70;;;;;;5094017;28;20528;-79
2021/04/04 04:31:35;;;;;;;4.67;3.47;;;2.10;99.90;;;;;;5093634;28;20451;-79
2021/04/04 04:34:03;;;;;;;4.90;3.20;;;2.00;99.90;;;;;;5093193;28;20479;-79
2021/04/04 04:36:31;;;;;;;5.00;3.40;;;2.00;99.90;;;;;;5093350;28;20436;-79
2021/04/04 04:38:59;;;;;;;4.50;2.93;;;1.90;99.90;;;;;;5093466;28;20475;-79
2021/04/04 04:41:26;;;;;;;4.90;2.83;;;1.90;99.90;;;;;;5094003;28;20939;-79
2021/04/04 04:43:56;;;;;;;4.73;2.93;;;1.80;99.90;;;;;;5093357;28;20958;-80
2021/04/04 04:46:24;;;;;;;4.80;3.10;;;1.70;99.90;;;;;;5093629;28;20513;-80
2021/04/04 04:48:50;;;;;;;5.00;3.00;;;1.70;99.90;;;;;;5093012;28;20450;-80
2021/04/04 04:51:19;;;;;;;3.23;2.70;;;1.70;99.90;;;;;;5093047;28;20458;-80
2021/04/04 04:53:47;;;;;;;2.40;2.20;;;1.80;99.90;;;;;;5093014;28;20836;-79
2021/04/04 04:56:15;;;;;;;7.90;2.57;;;1.90;99.90;;;;;;5093041;28;20781;-79
2021/04/04 04:58:43;;;;;;;7.23;3.43;;;1.90;99.60;;;;;;5092965;28;21040;-79
2021/04/04 05:01:12;;;;;;;3.10;2.77;;;1.90;99.10;;;;;;5093298;28;20448;-79
2021/04/04 05:03:39;;;;;;;4.97;3.10;;;1.90;99.10;;;;;;5093260;28;20513;-79
2021/04/04 05:06:08;;;;;;;5.10;3.03;;;1.90;99.40;;;;;;5093252;28;20448;-79
2021/04/04 05:08:37;;;;;;;3.13;2.67;;;1.90;99.70;;;;;;5093169;28;20446;-79
2021/04/04 05:11:07;;;;;;;4.40;3.13;;;1.90;99.90;;;;;;5092953;28;20444;-80
2021/04/04 05:13:34;;;;;;;4.40;3.00;;;1.80;99.90;;;;;;5092904;28;20456;-80
2021/04/04 05:16:01;;;;;;;3.77;3.47;;;1.80;99.90;;;;;;5093182;28;20518;-80
2021/04/04 05:18:28;;;;;;;4.60;2.90;;;1.80;99.90;;;;;;5092721;28;20970;-80
2021/04/04 05:20:54;;;;;;;6.00;2.87;;;1.80;99.90;;;;;;5096669;28;20861;-80
2021/04/04 05:23:22;;;;;;;4.30;2.80;;;1.80;99.90;;;;;;5097079;28;20452;-80
2021/04/04 05:25:50;;;;;;;4.60;3.43;;;1.90;99.90;;;;;;5096816;28;20439;-79
2021/04/04 05:28:17;;;;;;;3.40;3.10;;;2.00;99.90;;;;;;5096722;28;20805;-79
2021/04/04 05:30:44;;;;;;;5.10;3.20;;;2.00;99.90;;;;;;5096945;28;20447;-79
2021/04/04 05:33:10;;;;;;;5.83;3.03;;;2.00;99.90;;;;;;5096782;28;20487;-79
2021/04/04 05:35:38;;;;;;;3.60;2.40;;;2.10;99.90;;;;;;5096535;28;20951;-79
2021/04/04 05:38:06;;;;;;;6.30;3.27;;;2.20;99.40;;;;;;5096576;28;20436;-79
2021/04/04 05:40:33;;;;;;;8.50;3.50;;;2.20;99.60;;;;;;5096643;28;20475;-80
2021/04/04 05:43:01;;;;;;;3.70;3.30;;;2.30;99.70;;;;;;5096334;28;20800;-80
2021/04/04 05:45:36;;;;;;;3.37;3.07;;;2.30;99.50;;;;;;5096643;28;20444;-80
2021/04/04 05:48:18;;;;;;;5.67;3.37;;;2.30;99.40;;;;;;5096258;28;20471;-80
2021/04/04 05:51:10;;;;;;;2.77;2.57;;;2.40;98.60;;;;;;5096334;28;20495;-79
2021/04/04 05:53:51;;;;;;;4.07;2.77;;;2.40;98.60;;;;;;5096078;28;20483;-79
2021/04/04 05:56:24;;;;;;;3.97;2.80;;;2.50;98.30;;;;;;5096468;28;20431;-79
2021/04/04 05:58:59;;;;;;;6.37;2.93;;;2.60;99.20;;;;;;5096184;28;20456;-80
2021/04/04 06:02:06;;;;;;;7.50;3.50;;;2.70;98.70;;;;;;5096395;28;20437;-79
2021/04/04 06:04:51;;;;;;;6.27;2.90;;;2.80;99.10;;;;;;5096019;28;20957;-79
2021/04/04 06:07:52;;;;;;;3.40;3.10;;;2.80;99.20;;;;;;5095986;28;20438;-79
2021/04/04 06:10:22;;;;;;;9.57;3.50;;;2.90;99.40;;;;;;5095997;28;20468;-79
2021/04/04 06:13:21;;;;;;;3.27;3.00;;;3.00;99.00;;;;;;5097136;28;20501;-79
2021/04/04 06:15:57;;;;;;;4.47;3.53;;;3.00;99.90;;;;;;5087951;28;20807;-79
2021/04/04 06:18:35;;;;;;;3.60;3.30;;;3.10;99.90;;;;;;5095693;28;20432;-79
2021/04/04 06:21:09;;;;;;;5.57;3.10;;;3.10;99.80;;;;;;5096155;28;20439;-79
2021/04/04 06:23:44;;;;;;;8.07;3.37;;;3.20;99.60;;;;;;5096397;28;20783;-79
2021/04/04 06:26:26;;;;;;;5.27;4.13;;;3.40;99.00;;;;;;5095923;28;20402;-79
2021/04/04 06:29:00;;;;;;;3.80;3.30;;;3.80;98.20;;;;;;5095721;28;20474;-79
2021/04/04 06:31:35;;;;;;;4.80;3.77;;;4.50;96.20;;;;;;5095374;28;20431;-80
2021/04/04 06:34:13;;;;;;;4.30;3.13;;;5.30;94.70;;;;;;5095670;28;20482;-79
2021/04/04 06:36:45;;;;;;;3.83;2.87;;;6.50;91.70;;;;;;5095723;28;20458;-79
2021/04/04 06:39:40;;;;;;;4.23;3.20;;;7.60;87.10;;;;;;5095263;28;20468;-79
2021/04/04 06:42:11;;;;;;;6.30;3.00;;;8.90;81.60;;;;;;5095260;28;20960;-79
2021/04/04 06:45:04;;;;;;;5.23;3.00;;;10.00;72.80;;;;;;5095516;28;20447;-79
2021/04/04 06:47:40;;;;;;;3.50;3.20;;;10.20;67.80;;;;;;5095171;28;20486;-80
2021/04/04 06:50:18;;;;;;;3.63;2.87;;;9.70;68.60;;;;;;5095303;28;20468;-80
2021/04/04 06:53:00;;;;;;;3.73;3.07;;;8.90;68.50;;;;;;5095032;28;20984;-80
2021/04/04 06:55:41;;;;;;;5.53;2.83;;;8.10;70.20;;;;;;5095219;28;20444;-80
2021/04/04 06:58:20;;;;;;;3.63;2.47;;;7.30;72.10;;;;;;5095159;28;20419;-80
2021/04/04 07:00:56;;;;;;;4.63;2.90;;;6.70;73.50;;;;;;5095256;28;20439;-80
2021/04/04 07:03:26;;;;;;;4.03;3.00;;;6.40;76.50;;;;;;5095167;28;20429;-79
2021/04/04 07:06:05;;;;;;;5.50;3.00;;;6.20;78.20;;;;;;5095186;28;20412;-80
2021/04/04 07:08:46;;;;;;;6.60;3.40;;;6.10;79.00;;;;;;5095091;28;20441;-80
2021/04/04 07:11:21;;;;;;;5.83;2.67;;;6.10;80.50;;;;;;5094926;28;20452;-79
2021/04/04 07:14:20;;;;;;;4.43;2.77;;;6.10;79.50;;;;;;5094966;28;20463;-79
2021/04/04 07:17:23;;;;;;;5.40;3.60;;;6.10;79.50;;;;;;5095084;28;20455;-79
2021/04/04 07:20:31;;;;;;;6.70;3.40;;;6.00;79.70;;;;;;5094173;28;20474;-79
2021/04/04 07:23:33;;;;;;;3.83;2.83;;;6.30;80.70;;;;;;5052275;28;20956;-79
2021/04/04 07:26:03;;;;;;;6.23;4.03;;;6.50;80.70;;;;;;5094770;28;20435;-80
2021/04/04 07:28:48;;;;;;;3.23;2.93;;;7.20;78.90;;;;;;5094461;28;20438;-80
2021/04/04 07:31:16;;;;;;;6.17;3.73;;;8.30;75.40;;;;;;5094398;28;20432;-80
2021/04/04 07:33:49;;;;;;;6.07;3.30;;;10.20;70.70;;;;;;5094442;28;20905;-80
2021/04/04 07:36:22;;;;;;;3.83;3.30;;;12.20;66.50;;;;;;5094603;28;20871;-79
2021/04/04 07:38:56;;;;;;;3.50;3.20;;;13.90;58.70;;;;;;5094471;28;20456;-80
2021/04/04 07:41:33;;;;;;;5.10;4.03;;;14.60;54.40;;;;;;5094549;28;20865;-80
2021/04/04 07:44:06;;;;;;;4.73;3.33;;;15.40;52.80;;;;;;5094430;28;20511;-80
2021/04/04 07:46:43;;;;;;;6.67;3.40;;;15.50;50.40;;;;;;5094562;28;20448;-80
2021/04/04 07:49:20;;;;;;;5.17;3.57;;;15.60;50.60;;;;;;5094085;28;20446;-80
2021/04/04 07:51:49;;;;;;;5.17;4.23;;;15.30;48.80;;;;;;5094021;28;20424;-80
2021/04/04 07:54:22;;;;;;;7.63;4.03;;;15.00;49.30;;;;;;5093851;28;20536;-80
2021/04/04 07:56:54;;;;;;;4.83;2.63;;;14.50;50.10;;;;;;5094253;28;20447;-79
2021/04/04 07:59:28;;;;;;;4.17;3.87;;;14.30;51.00;;;;;;5094048;28;20459;-79
2021/04/04 08:02:03;;;;;;;6.10;3.27;;;14.20;51.50;;;;;;5094063;28;20428;-79
2021/04/04 08:04:36;;;;;;;4.60;3.10;;;13.60;51.60;;;;;;5094186;28;20431;-79
2021/04/04 08:07:08;;;;;;;5.20;3.83;;;13.30;52.20;;;;;;5094039;28;20436;-80
2021/04/04 08:09:44;;;;;;;4.27;3.80;;;13.00;53.10;;;;;;5093575;28;20448;-80
2021/04/04 08:12:20;;;;;;;4.00;3.60;;;12.60;53.00;;;;;;5093738;28;20408;-79
2021/04/04 08:14:55;;;;;;;5.63;4.30;;;12.40;53.40;;;;;;5093948;28;20456;-80
2021/04/04 08:17:21;;;;;;;4.63;3.70;;;12.30;53.30;;;;;;5093861;28;20439;-80
2021/04/04 08:19:59;;;;;;;7.33;3.77;;;12.30;52.70;;;;;;5093464;28;21003;-78
2021/04/04 08:22:28;;;;;;;5.40;3.60;;;12.20;52.90;;;;;;5093832;28;20523;-80
2021/04/04 08:25:01;;;;;;;8.20;3.60;;;12.20;52.70;;;;;;5093412;28;20447;-80
2021/04/04 08:27:32;;;;;;;6.73;3.80;;;12.10;53.40;;;;;;5093564;28;20435;-80
2021/04/04 08:30:02;;;;;;;5.53;3.43;;;12.00;53.70;;;;;;5093316;28;21052;-80
2021/04/04 08:32:37;;;;;;;5.03;3.73;;;11.80;53.70;;;;;;5093334;28;20943;-80
2021/04/04 08:35:07;;;;;;;5.10;3.60;;;12.00;53.40;;;;;;5093994;28;20520;-80
2021/04/04 08:37:40;;;;;;;4.93;3.50;;;12.00;53.80;;;;;;5093087;28;20492;-80
2021/04/04 08:40:13;;;;;;;3.47;3.17;;;11.80;52.60;;;;;;5093477;28;20456;-80
2021/04/04 08:42:42;;;;;;;6.47;3.80;;;11.90;52.80;;;;;;5093474;28;20416;-80
2021/04/04 08:45:11;;;;;;;6.90;3.70;;;12.30;52.70;;;;;;5093505;28;20451;-80
2021/04/04 08:47:41;;;;;;;8.87;3.50;;;12.50;52.30;;;;;;5093204;28;20478;-80
2021/04/04 08:50:11;;;;;;;4.20;2.90;;;12.60;51.80;;;;;;5093601;28;20892;-80
2021/04/04 08:52:45;;;;;;;7.53;3.53;;;12.80;50.40;;;;;;5093406;28;20481;-80
2021/04/04 08:55:16;;;;;;;4.97;3.00;;;13.20;49.70;;;;;;5096207;28;20467;-80
2021/04/04 08:57:46;;;;;;;5.13;3.30;;;13.40;49.00;;;;;;5097682;28;20485;-80
2021/04/04 09:00:14;;;;;;;4.93;3.50;;;13.80;48.40;;;;;;5097227;28;20448;-80
2021/04/04 09:02:48;;;;;;;3.67;3.20;;;14.40;46.90;;;;;;5097419;28;20915;-80
2021/04/04 09:05:15;;;;;;;3.70;3.17;;;15.80;45.60;;;;;;5097329;28;20930;-81
2021/04/04 09:07:43;;;;;;;4.00;2.80;;;16.60;44.20;;;;;;5097560;28;20432;-80
2021/04/04 09:10:11;;;;;;;4.87;3.03;;;16.40;44.20;;;;;;5097412;28;20464;-81
2021/04/04 09:12:40;;;;;;;8.00;3.00;;;16.20;45.10;;;;;;5097437;28;20455;-80
2021/04/04 09:15:09;;;;;;;5.47;3.33;;;17.00;44.10;;;;;;5097243;28;20463;-80
2021/04/04 09:17:35;;;;;;;3.93;2.67;;;19.30;42.70;;;;;;5096988;28;20444;-81
2021/04/04 09:20:06;;;;;;;3.00;2.77;;;19.90;39.80;;;;;;5097205;28;20994;-81
2021/04/04 09:22:35;;;;;;;4.10;2.77;;;19.10;38.70;;;;;;5097180;28;20444;-81
2021/04/04 09:25:07;;;;;;;5.60;2.97;;;18.40;39.70;;;;;;5096881;28;20434;-81
2021/04/04 09:27:36;;;;;;;5.57;2.90;;;18.60;40.30;;;;;;5097101;28;20439;-80
2021/04/04 09:30:22;;;;;;;4.30;3.27;;;19.30;39.60;;;;;;5097063;28;20954;-80
2021/04/04 09:32:52;;;;;;;4.20;3.47;;;19.70;38.90;;;;;;5097035;28;20810;-80
2021/04/04 09:35:21;;;;;;;3.27;3.00;;;21.80;36.80;;;;;;5096974;28;20442;-81
2021/04/04 09:37:48;;;;;;;6.13;3.65;;;22.90;34.20;;;;;;5096940;28;20440;-82
2021/04/04 09:40:16;;;;;;;5.60;3.45;;;23.00;33.30;;;;;;5096871;28;20220;-81
2021/04/04 09:42:43;;;;;;;3.22;2.92;;;22.70;33.10;;;;;;5096530;28;20645;-82
2021/04/04 09:45:14;;;;;;;4.80;3.63;;;21.90;33.60;;;;;;5096569;28;20633;-82
2021/04/04 09:47:42;;;;;;;5.47;3.20;;;21.20;34.50;;;;;;5096648;28;20286;-82
2021/04/04 09:50:19;;;;;;;3.40;2.83;;;19.90;34.80;;;;;;5097536;28;20233;-82
2021/04/04 09:52:46;;;;;;;4.00;3.17;;;18.80;35.30;;;;;;5096649;28;20472;-82
2021/04/04 09:55:14;;;;;;;4.83;2.90;;;17.70;37.40;;;;;;5096542;28;20506;-80
2021/04/04 09:57:42;;;;;;;3.40;3.10;;;16.80;37.80;;;;;;5096654;28;20911;-82
2021/04/04 10:00:18;;;;;;;5.23;3.40;;;16.40;39.00;;;;;;5096415;28;20480;-82
2021/04/04 10:02:46;;;;;;;3.07;2.87;;;16.20;40.40;;;;;;5096158;28;20404;-79
2021/04/04 10:05:24;;;;;;;3.67;3.03;;;16.10;40.30;;;;;;5095692;28;20471;-79
2021/04/04 10:07:50;;;;;;;3.47;2.47;;;16.20;39.90;;;;;;5095956;28;20450;-79
2021/04/04 10:10:28;;;;;;;4.40;3.30;;;15.90;39.80;;;;;;5095943;28;20855;-79
2021/04/04 10:12:55;;;;;;;3.17;2.77;;;15.90;39.00;;;;;;5096131;28;20439;-78
2021/04/04 10:15:23;;;;;;;3.97;3.03;;;15.60;39.20;;;;;;5096200;28;20450;-78
2021/04/04 10:17:53;;;;;;;3.60;2.47;;;15.20;40.70;;;;;;5096091;28;20481;-78
2021/04/04 10:20:31;;;;;;;4.40;3.30;;;15.00;40.10;;;;;;5095742;28;21013;-78
2021/04/04 10:22:57;;;;;;;10.10;3.87;;;14.90;41.20;;;;;;5095983;28;20424;-78
2021/04/04 10:25:24;;;;;;;4.43;3.23;;;15.50;43.10;;;;;;5096032;28;20412;-78
2021/04/04 10:27:57;;;;;;;5.03;3.60;;;16.80;42.50;;;;;;5095925;28;20470;-78
2021/04/04 10:30:28;;;;;;;5.00;3.17;;;18.00;39.50;;;;;;5095501;28;20893;-79
2021/04/04 10:32:55;;;;;;;3.80;2.90;;;19.00;38.40;;;;;;5095484;28;20446;-79
2021/04/04 10:35:30;;;;;;;4.13;2.80;;;19.60;36.70;;;;;;5095726;28;20456;-79
2021/04/04 10:38:03;;;;;;;4.30;2.87;;;20.80;35.80;;;;;;5095811;28;20434;-78
2021/04/04 10:40:48;;;;;;;3.07;2.87;;;21.40;34.00;;;;;;5095317;28;20520;-79
2021/04/04 10:43:17;;;;;;;5.63;3.63;;;21.80;34.50;;;;;;5096060;28;20447;-79
2021/04/04 10:46:05;;;;;;;3.83;3.10;;;22.40;33.10;;;;;;5095379;28;20947;-79
2021/04/04 10:48:32;;;;;;;3.58;3.28;;;23.90;32.10;;;;;;5094968;28;20233;-79
2021/04/04 10:50:59;;;;;;;3.45;2.78;;;24.80;30.00;;;;;;5095479;28;20189;-79
2021/04/04 10:53:26;;;;;;;2.67;2.33;;;24.10;29.40;;;;;;5095367;28;20549;-79
2021/04/04 10:55:52;;;;;;;2.83;2.63;;;24.50;29.30;;;;;;5095391;28;20193;-79
2021/04/04 10:58:21;;;;;;;4.38;3.20;;;24.30;29.00;;;;;;5095334;28;20633;-78
2021/04/04 11:00:48;;;;;;;3.00;2.80;;;24.00;29.70;;;;;;5094920;28;20193;-81
2021/04/04 11:03:16;;;;;;;4.40;3.47;;;24.20;29.70;;;;;;5094902;28;20665;-81
2021/04/04 11:05:42;;;;;;;2.65;2.45;;;24.40;29.40;;;;;;5095159;28;20178;-81
2021/04/04 11:08:08;;;;;;;3.22;2.95;;;24.00;29.30;;;;;;5094860;28;20781;-81
2021/04/04 11:10:35;;;;;;;4.03;2.55;;;23.40;29.50;;;;;;5095448;28;20222;-80
2021/04/04 11:13:03;;;;;;;3.38;3.08;;;22.60;30.70;;;;;;5095079;28;20190;-80
2021/04/04 11:15:31;;;;;;;3.77;3.30;;;21.90;29.70;;;;;;5095474;28;20204;-81
2021/04/04 11:18:00;;;;;;;3.10;2.80;;;20.40;32.00;;;;;;5094381;28;20188;-80
2021/04/04 11:20:28;;;;;;;4.93;4.07;;;19.40;31.80;;;;;;5093947;28;20920;-79
2021/04/04 11:22:55;;;;;;;3.67;3.37;;;18.60;33.20;;;;;;5093255;28;20440;-77
2021/04/04 11:25:28;;;;;;;3.20;2.90;;;18.30;35.40;;;;;;5093742;28;20428;-77
2021/04/04 11:27:56;;;;;;;3.60;3.30;;;17.90;35.30;;;;;;5093095;28;20485;-77
2021/04/04 11:30:40;;;;;;;3.10;2.80;;;17.60;34.80;;;;;;5093147;28;20472;-77
2021/04/04 11:33:30;;;;;;;4.53;3.77;;;17.40;35.90;;;;;;5092399;28;20501;-77
2021/04/04 11:36:08;;;;;;;3.97;3.60;;;17.30;35.90;;;;;;5093058;28;20447;-77
2021/04/04 11:38:36;;;;;;;3.80;3.10;;;17.10;36.00;;;;;;5089598;28;20444;-76
2021/04/04 11:41:14;;;;;;;6.40;3.10;;;16.90;36.30;;;;;;5094081;28;20417;-81
2021/04/04 11:43:41;;;;;;;3.50;3.20;;;16.80;36.50;;;;;;5093969;28;20503;-79
2021/04/04 11:46:39;;;;;;;3.30;3.00;;;16.90;35.80;;;;;;5094094;28;20923;-80
2021/04/04 11:49:35;;;;;;;2.90;2.70;;;16.60;35.30;;;;;;5093119;28;20459;-76
2021/04/04 11:52:47;;;;;;;3.87;3.53;;;16.10;35.50;;;;;;5093494;28;20478;-77
2021/04/04 11:55:14;;;;;;;4.97;3.30;;;15.90;35.80;;;;;;5092429;28;20517;-77
2021/04/04 11:57:44;;;;;;;3.20;3.00;;;15.60;35.30;;;;;;5094056;28;20478;-77
2021/04/04 12:00:19;;;;;;;3.40;2.90;;;15.40;36.40;;;;;;5094445;28;20556;-76
2021/04/04 12:03:01;;;;;;;3.80;2.90;;;15.20;37.00;;;;;;5093713;28;20431;-78
2021/04/04 12:05:33;;;;;;;3.50;2.97;;;15.10;37.00;;;;;;5093952;28;20464;-79
2021/04/04 12:08:01;;;;;;;3.60;3.13;;;14.90;37.80;;;;;;5082513;28;20455;-78
2021/04/04 12:10:29;;;;;;;3.23;2.93;;;14.90;39.50;;;;;;5077797;28;20487;-78
2021/04/04 12:12:56;;;;;;;3.77;3.47;;;14.90;39.20;;;;;;5093892;28;20867;-78
2021/04/04 12:15:24;;;;;;;2.90;2.73;;;14.90;38.30;;;;;;5081790;28;20840;-79
2021/04/04 12:17:52;;;;;;;4.67;3.47;;;14.90;39.00;;;;;;5073588;28;20435;-78
2021/04/04 12:20:21;;;;;;;3.63;3.33;;;14.90;39.30;;;;;;5073525;28;20825;-79
2021/04/04 12:22:47;;;;;;;2.77;2.57;;;14.90;38.80;;;;;;5088286;28;20954;-78
2021/04/04 12:25:16;;;;;;;3.90;3.17;;;14.80;39.40;;;;;;5093782;28;20432;-79
2021/04/04 12:27:44;;;;;;;3.30;3.00;;;14.80;40.40;;;;;;5092762;28;20934;-81
2021/04/04 12:30:23;;;;;;;4.47;3.33;;;14.80;38.90;;;;;;5092412;28;20464;-81
2021/04/04 12:33:00;;;;;;;4.07;3.70;;;14.70;37.60;;;;;;5090392;28;20443;-79
2021/04/04 12:35:27;;;;;;;4.47;3.33;;;14.50;39.10;;;;;;5094302;28;20820;-79
2021/04/04 12:37:54;;;;;;;3.33;2.53;;;14.40;37.70;;;;;;5093655;28;20432;-80
2021/04/04 12:40:22;;;;;;;5.40;3.30;;;14.30;39.10;;;;;;5093337;28;20459;-79
2021/04/04 12:42:55;;;;;;;5.13;3.50;;;14.20;37.90;;;;;;5093322;28;20404;-80
2021/04/04 12:45:21;;;;;;;3.90;3.60;;;13.80;39.00;;;;;;5093390;28;20432;-80
2021/04/04 12:47:48;;;;;;;4.20;3.07;;;13.70;40.50;;;;;;5093170;28;20841;-79
2021/04/04 12:50:16;;;;;;;3.47;2.87;;;13.70;40.50;;;;;;5093466;28;20551;-80
2021/04/04 12:52:44;;;;;;;5.50;3.87;;;13.70;39.80;;;;;;5093394;28;20416;-79
2021/04/04 12:55:17;;;;;;;5.80;4.03;;;13.50;39.60;;;;;;5093346;28;20504;-79
2021/04/04 12:57:46;;;;;;;4.77;4.20;;;13.30;39.80;;;;;;5093133;28;20476;-79
2021/04/04 13:00:23;;;;;;;3.20;3.00;;;13.00;40.40;;;;;;5093031;28;21054;-85
2021/04/04 13:02:58;;;;;;;2.93;2.43;;;12.70;41.70;;;;;;5094091;28;20504;-76
2021/04/04 13:05:26;;;;;;;3.53;2.90;;;12.70;43.50;;;;;;5092627;28;20925;-79
2021/04/04 13:07:53;;;;;;;4.40;3.57;;;12.80;42.20;;;;;;5093358;28;20445;-79
2021/04/04 13:10:19;;;;;;;3.33;2.87;;;12.90;41.30;;;;;;5093328;28;20554;-79
2021/04/04 13:12:46;;;;;;;3.80;3.50;;;12.80;41.80;;;;;;5093278;28;20429;-79
2021/04/04 13:15:28;;;;;;;3.70;3.37;;;12.80;40.70;;;;;;5093203;28;20470;-79